createdAt,value
2023-02-06T00:06:54.658Z,4.30
2023-02-06T00:17:01.054Z,4.20
2023-02-06T00:27:04.842Z,4.30
2023-02-06T00:37:10.378Z,4.20
2023-02-06T00:47:14.253Z,4.30
2023-02-06T00:57:19.514Z,4.20
2023-02-06T01:07:23.156Z,4.20
2023-02-06T01:17:28.388Z,4.10
2023-02-06T01:27:32.308Z,4.00
2023-02-06T01:37:37.968Z,4.10
2023-02-06T01:47:41.594Z,4.10
2023-02-06T01:57:46.726Z,4.20
2023-02-06T02:08:00.965Z,4.20
2023-02-06T02:18:22.565Z,4.20
2023-02-06T02:29:42.162Z,4.20
2023-02-06T02:39:56.980Z,4.10
2023-02-06T02:50:04.266Z,4.20
2023-02-06T03:00:11.613Z,4.10
2023-02-06T03:10:21.829Z,4.20
2023-02-06T03:20:30.123Z,4.20
2023-02-06T03:30:35.700Z,4.20
2023-02-06T03:40:42.899Z,4.20
2023-02-06T03:50:50.601Z,4.20
2023-02-06T04:00:55.804Z,4.20
2023-02-06T04:10:59.688Z,4.10
2023-02-06T04:21:08.289Z,4.10
2023-02-06T04:31:12.109Z,4.10
2023-02-06T04:41:17.140Z,4.10
2023-02-06T04:51:20.828Z,3.90
2023-02-06T05:01:26.202Z,3.90
2023-02-06T05:11:29.950Z,3.80
2023-02-06T05:21:34.942Z,3.70
2023-02-06T05:31:38.669Z,3.60
2023-02-06T05:41:43.732Z,3.60
2023-02-06T05:51:47.515Z,3.60
2023-02-06T06:01:52.680Z,3.70
2023-02-06T06:11:56.424Z,3.70
2023-02-06T06:22:01.470Z,3.60
2023-02-06T06:32:06.254Z,3.60
2023-02-06T06:42:11.523Z,3.60
2023-02-06T06:52:24.332Z,3.60
2023-02-06T07:02:30.512Z,3.70
2023-02-06T07:12:34.755Z,3.80
2023-02-06T07:22:39.893Z,4.00
2023-02-06T07:32:43.512Z,3.90
2023-02-06T07:42:48.570Z,4.00
2023-02-06T07:52:52.224Z,3.90
2023-02-06T08:02:57.278Z,3.90
2023-02-06T08:13:01.062Z,3.90
2023-02-06T08:23:08.150Z,3.80
2023-02-06T08:33:11.797Z,3.70
2023-02-06T08:43:16.841Z,3.70
2023-02-06T08:53:20.412Z,3.70
2023-02-06T09:03:27.001Z,3.70
2023-02-06T09:13:31.700Z,3.70
2023-02-06T09:23:36.939Z,3.90
2023-02-06T09:33:41.262Z,4.30
2023-02-06T09:43:52.320Z,4.30
2023-02-06T09:54:08.640Z,4.50
2023-02-06T10:04:41.599Z,4.60
2023-02-06T10:14:49.914Z,4.70
2023-02-06T10:25:22.186Z,4.40
2023-02-06T10:35:48.961Z,4.70
2023-02-06T10:46:06.602Z,4.90
2023-02-06T10:56:14.524Z,4.40
2023-02-06T11:06:22.092Z,4.60
2023-02-06T11:16:28.703Z,5.00
2023-02-06T11:26:34.051Z,4.70
2023-02-06T11:36:40.898Z,4.90
2023-02-06T11:46:46.063Z,5.30
2023-02-06T11:57:04.222Z,5.30
2023-02-06T12:07:18.117Z,5.30
2023-02-06T12:17:29.072Z,5.40
2023-02-06T12:27:39.528Z,5.40
2023-02-06T12:37:49.844Z,5.40
2023-02-06T12:48:00.442Z,5.70
2023-02-06T12:58:05.872Z,5.80
2023-02-06T13:08:15.099Z,5.80
2023-02-06T13:19:02.645Z,5.70
2023-02-06T13:29:25.786Z,6.10
2023-02-06T13:39:34.738Z,5.90
2023-02-06T13:50:18.051Z,6.10
2023-02-06T14:00:25.366Z,6.20
2023-02-06T14:11:04.791Z,6.60
2023-02-06T14:21:24.870Z,6.40
2023-02-06T14:31:48.477Z,6.50
2023-02-06T14:41:52.719Z,6.60
2023-02-06T14:51:58.142Z,6.60
2023-02-06T15:02:14.984Z,6.40
2023-02-06T15:12:26.541Z,6.30
2023-02-06T15:22:31.902Z,6.30
2023-02-06T15:32:40.286Z,6.20
2023-02-06T15:42:44.192Z,6.10
2023-02-06T15:52:49.449Z,6.00
2023-02-06T16:02:57.953Z,5.90
2023-02-06T16:13:09.622Z,5.70
2023-02-06T16:23:23.877Z,5.50
2023-02-06T16:33:35.501Z,5.40
2023-02-06T16:43:39.444Z,5.30
2023-02-06T16:53:45.497Z,5.30
2023-02-06T17:03:50.181Z,5.30
2023-02-06T17:13:55.253Z,5.20
2023-02-06T17:24:00.206Z,5.20
2023-02-06T17:34:05.234Z,5.00
2023-02-06T17:44:09.074Z,5.00
2023-02-06T17:54:14.520Z,4.90
2023-02-06T18:04:20.273Z,4.80
2023-02-06T18:14:25.372Z,4.60
2023-02-06T18:24:29.738Z,4.30
2023-02-06T18:34:36.265Z,4.10
2023-02-06T18:44:42.660Z,3.90
2023-02-06T18:54:48.771Z,3.60
2023-02-06T19:04:52.572Z,3.30
2023-02-06T19:14:58.764Z,3.20
2023-02-06T19:25:03.043Z,3.20
2023-02-06T19:35:09.148Z,3.10
2023-02-06T19:45:14.027Z,3.00
2023-02-06T19:55:19.600Z,2.90
2023-02-06T20:05:26.365Z,2.70
2023-02-06T20:15:32.254Z,2.60
2023-02-06T20:25:39.020Z,2.70
2023-02-06T20:35:45.796Z,2.60
2023-02-06T20:45:50.071Z,2.60
2023-02-06T20:55:55.491Z,2.50
2023-02-06T21:06:00.890Z,2.40
2023-02-06T21:16:06.926Z,2.10
2023-02-06T21:26:13.680Z,2.00
2023-02-06T21:36:21.196Z,1.80
2023-02-06T21:46:26.010Z,1.90
2023-02-06T21:56:32.047Z,2.10
2023-02-06T22:06:37.817Z,2.20
2023-02-06T22:16:46.392Z,2.20
2023-02-06T22:26:50.377Z,2.60
2023-02-06T22:36:55.946Z,2.40
2023-02-06T22:47:00.208Z,2.30
2023-02-06T22:57:05.730Z,2.20
2023-02-06T23:07:12.631Z,2.30
2023-02-06T23:17:18.019Z,2.10
2023-02-06T23:27:21.909Z,2.00
2023-02-06T23:37:27.068Z,2.20
2023-02-06T23:47:30.700Z,2.20
2023-02-06T23:57:37.474Z,2.10
